sensor_id;sensor_type;location;lat;lon;timestamp;temperature;humidity
30049;DHT22;16879;50.852;15.602;2023-08-31T00:04:34;10.60;1.00
30049;DHT22;16879;50.852;15.602;2023-08-31T00:07:00;10.60;1.00
30049;DHT22;16879;50.852;15.602;2023-08-31T00:09:26;10.30;1.00
30049;DHT22;16879;50.852;15.602;2023-08-31T00:11:52;10.80;1.00
30049;DHT22;16879;50.852;15.602;2023-08-31T00:14:18;10.50;1.00
30049;DHT22;16879;50.852;15.602;2023-08-31T00:16:44;10.30;1.00
30049;DHT22;16879;50.852;15.602;2023-08-31T00:21:40;10.80;1.00
30049;DHT22;16879;50.852;15.602;2023-08-31T00:24:06;10.50;1.00
30049;DHT22;16879;50.852;15.602;2023-08-31T00:26:35;10.30;1.00
30049;DHT22;16879;50.852;15.602;2023-08-31T00:31:36;10.50;1.00
30049;DHT22;16879;50.852;15.602;2023-08-31T00:34:02;10.50;1.00
30049;DHT22;16879;50.852;15.602;2023-08-31T00:36:30;10.40;1.00
30049;DHT22;16879;50.852;15.602;2023-08-31T00:38:57;10.70;1.00
30049;DHT22;16879;50.852;15.602;2023-08-31T00:51:08;10.60;1.00
30049;DHT22;16879;50.852;15.602;2023-08-31T00:53:36;10.60;1.00
30049;DHT22;16879;50.852;15.602;2023-08-31T00:56:02;10.50;1.00
30049;DHT22;16879;50.852;15.602;2023-08-31T01:01:06;11.00;1.00
30049;DHT22;16879;50.852;15.602;2023-08-31T01:09:02;10.60;1.00
30049;DHT22;16879;50.852;15.602;2023-08-31T01:11:49;10.40;1.00
30049;DHT22;16879;50.852;15.602;2023-08-31T01:14:19;10.50;1.00
30049;DHT22;16879;50.852;15.602;2023-08-31T01:22:09;10.50;1.00
30049;DHT22;16879;50.852;15.602;2023-08-31T01:24:37;10.50;1.00
30049;DHT22;16879;50.852;15.602;2023-08-31T01:27:04;10.70;1.00
30049;DHT22;16879;50.852;15.602;2023-08-31T01:29:30;10.60;1.00
30049;DHT22;16879;50.852;15.602;2023-08-31T01:31:56;10.50;1.00
30049;DHT22;16879;50.852;15.602;2023-08-31T01:34:22;10.60;1.00
30049;DHT22;16879;50.852;15.602;2023-08-31T01:36:53;10.70;1.00
30049;DHT22;16879;50.852;15.602;2023-08-31T01:39:39;10.80;1.00
30049;DHT22;16879;50.852;15.602;2023-08-31T01:42:11;10.90;1.00
30049;DHT22;16879;50.852;15.602;2023-08-31T01:47:06;10.90;1.00
30049;DHT22;16879;50.852;15.602;2023-08-31T01:52:06;10.80;1.00
30049;DHT22;16879;50.852;15.602;2023-08-31T01:54:32;10.50;1.00
30049;DHT22;16879;50.852;15.602;2023-08-31T01:56:58;10.90;1.00
30049;DHT22;16879;50.852;15.602;2023-08-31T01:59:24;11.10;1.00
30049;DHT22;16879;50.852;15.602;2023-08-31T02:04:17;11.00;1.00
30049;DHT22;16879;50.852;15.602;2023-08-31T02:06:42;11.00;1.00
30049;DHT22;16879;50.852;15.602;2023-08-31T02:09:08;10.70;1.00
30049;DHT22;16879;50.852;15.602;2023-08-31T02:14:04;10.80;1.00
30049;DHT22;16879;50.852;15.602;2023-08-31T02:16:30;10.90;1.00
30049;DHT22;16879;50.852;15.602;2023-08-31T02:18:57;10.70;1.00
30049;DHT22;16879;50.852;15.602;2023-08-31T02:21:23;10.90;1.00
30049;DHT22;16879;50.852;15.602;2023-08-31T02:28:41;10.60;1.00
30049;DHT22;16879;50.852;15.602;2023-08-31T02:31:09;10.40;1.00
30049;DHT22;16879;50.852;15.602;2023-08-31T02:33:36;10.80;1.00
30049;DHT22;16879;50.852;15.602;2023-08-31T02:38:29;10.90;1.00
30049;DHT22;16879;50.852;15.602;2023-08-31T02:40:54;9.80;1.00
30049;DHT22;16879;50.852;15.602;2023-08-31T02:43:20;10.80;1.00
30049;DHT22;16879;50.852;15.602;2023-08-31T02:45:46;10.40;1.00
30049;DHT22;16879;50.852;15.602;2023-08-31T02:48:13;9.80;1.00
30049;DHT22;16879;50.852;15.602;2023-08-31T02:55:34;10.10;1.00
30049;DHT22;16879;50.852;15.602;2023-08-31T02:58:00;9.90;1.00
30049;DHT22;16879;50.852;15.602;2023-08-31T03:00:26;9.80;1.00
30049;DHT22;16879;50.852;15.602;2023-08-31T03:05:20;10.10;1.00
30049;DHT22;16879;50.852;15.602;2023-08-31T03:07:48;10.20;1.00
30049;DHT22;16879;50.852;15.602;2023-08-31T03:10:14;9.60;1.00
30049;DHT22;16879;50.852;15.602;2023-08-31T03:12:40;9.50;1.00
30049;DHT22;16879;50.852;15.602;2023-08-31T03:15:06;9.90;1.00
30049;DHT22;16879;50.852;15.602;2023-08-31T03:17:32;9.70;1.00
30049;DHT22;16879;50.852;15.602;2023-08-31T03:19:58;9.50;1.00
30049;DHT22;16879;50.852;15.602;2023-08-31T03:22:24;9.60;1.00
30049;DHT22;16879;50.852;15.602;2023-08-31T03:24:50;9.90;1.00
30049;DHT22;16879;50.852;15.602;2023-08-31T03:27:16;9.50;1.00
30049;DHT22;16879;50.852;15.602;2023-08-31T03:29:42;9.30;1.00
30049;DHT22;16879;50.852;15.602;2023-08-31T03:34:34;9.90;1.00
30049;DHT22;16879;50.852;15.602;2023-08-31T03:37:01;9.40;1.00
30049;DHT22;16879;50.852;15.602;2023-08-31T03:44:20;9.50;1.00
30049;DHT22;16879;50.852;15.602;2023-08-31T03:46:47;9.60;1.00
30049;DHT22;16879;50.852;15.602;2023-08-31T04:01:23;9.60;1.00
30049;DHT22;16879;50.852;15.602;2023-08-31T04:06:15;9.00;1.00
30049;DHT22;16879;50.852;15.602;2023-08-31T04:11:08;9.30;1.00
30049;DHT22;16879;50.852;15.602;2023-08-31T04:13:34;9.20;1.00
30049;DHT22;16879;50.852;15.602;2023-08-31T04:15:59;9.20;1.00
30049;DHT22;16879;50.852;15.602;2023-08-31T04:18:25;9.30;1.00
30049;DHT22;16879;50.852;15.602;2023-08-31T04:20:52;9.10;1.00
30049;DHT22;16879;50.852;15.602;2023-08-31T04:28:12;9.20;1.00
30049;DHT22;16879;50.852;15.602;2023-08-31T04:33:06;9.20;1.00
30049;DHT22;16879;50.852;15.602;2023-08-31T04:37:58;9.50;1.00
30049;DHT22;16879;50.852;15.602;2023-08-31T04:40:24;9.60;1.00
30049;DHT22;16879;50.852;15.602;2023-08-31T04:42:51;9.50;1.00
30049;DHT22;16879;50.852;15.602;2023-08-31T04:45:17;9.60;1.00
30049;DHT22;16879;50.852;15.602;2023-08-31T04:47:43;9.90;1.00
30049;DHT22;16879;50.852;15.602;2023-08-31T04:55:01;9.60;1.00
30049;DHT22;16879;50.852;15.602;2023-08-31T04:59:55;10.20;1.00
30049;DHT22;16879;50.852;15.602;2023-08-31T05:07:14;9.80;1.00
30049;DHT22;16879;50.852;15.602;2023-08-31T05:09:40;9.60;1.00
30049;DHT22;16879;50.852;15.602;2023-08-31T05:12:06;9.50;1.00
30049;DHT22;16879;50.852;15.602;2023-08-31T05:17:03;10.40;1.00
30049;DHT22;16879;50.852;15.602;2023-08-31T05:19:30;9.60;1.00
30049;DHT22;16879;50.852;15.602;2023-08-31T05:21:56;10.30;1.00
30049;DHT22;16879;50.852;15.602;2023-08-31T05:24:23;10.80;1.00
30049;DHT22;16879;50.852;15.602;2023-08-31T05:26:51;10.40;1.00
30049;DHT22;16879;50.852;15.602;2023-08-31T05:31:43;10.90;99.90
30049;DHT22;16879;50.852;15.602;2023-08-31T05:34:10;10.50;1.00
30049;DHT22;16879;50.852;15.602;2023-08-31T05:39:02;10.00;1.00
30049;DHT22;16879;50.852;15.602;2023-08-31T05:41:28;11.20;1.00
30049;DHT22;16879;50.852;15.602;2023-08-31T05:43:54;11.10;1.00
30049;DHT22;16879;50.852;15.602;2023-08-31T05:46:20;12.20;1.00
30049;DHT22;16879;50.852;15.602;2023-08-31T05:48:46;12.30;1.00
30049;DHT22;16879;50.852;15.602;2023-08-31T05:51:12;12.20;1.00
30049;DHT22;16879;50.852;15.602;2023-08-31T05:56:03;13.30;99.90
30049;DHT22;16879;50.852;15.602;2023-08-31T05:58:31;12.30;99.90
30049;DHT22;16879;50.852;15.602;2023-08-31T06:03:24;12.90;1.00
30049;DHT22;16879;50.852;15.602;2023-08-31T06:05:50;13.60;1.00
30049;DHT22;16879;50.852;15.602;2023-08-31T06:08:16;13.00;1.00
30049;DHT22;16879;50.852;15.602;2023-08-31T06:10:41;13.50;1.00
30049;DHT22;16879;50.852;15.602;2023-08-31T06:15:33;12.60;1.00
30049;DHT22;16879;50.852;15.602;2023-08-31T06:20:25;12.80;1.00
30049;DHT22;16879;50.852;15.602;2023-08-31T06:25:18;12.90;1.00
30049;DHT22;16879;50.852;15.602;2023-08-31T06:27:44;12.80;1.00
30049;DHT22;16879;50.852;15.602;2023-08-31T06:30:11;13.30;1.00
30049;DHT22;16879;50.852;15.602;2023-08-31T06:35:11;12.90;1.00
30049;DHT22;16879;50.852;15.602;2023-08-31T06:40:11;13.20;99.90
30049;DHT22;16879;50.852;15.602;2023-08-31T06:42:37;13.10;99.90
30049;DHT22;16879;50.852;15.602;2023-08-31T06:45:04;13.40;99.90
30049;DHT22;16879;50.852;15.602;2023-08-31T06:49:57;13.10;4.30
30049;DHT22;16879;50.852;15.602;2023-08-31T06:52:27;13.70;1.00
30049;DHT22;16879;50.852;15.602;2023-08-31T06:57:26;13.30;1.00
30049;DHT22;16879;50.852;15.602;2023-08-31T07:02:20;13.50;1.00
30049;DHT22;16879;50.852;15.602;2023-08-31T07:07:14;13.20;1.00
30049;DHT22;16879;50.852;15.602;2023-08-31T07:09:44;13.40;1.00
30049;DHT22;16879;50.852;15.602;2023-08-31T07:12:10;13.20;10.50
30049;DHT22;16879;50.852;15.602;2023-08-31T07:14:36;13.30;36.70
30049;DHT22;16879;50.852;15.602;2023-08-31T07:17:02;13.50;10.60
30049;DHT22;16879;50.852;15.602;2023-08-31T07:19:28;13.20;24.30
30049;DHT22;16879;50.852;15.602;2023-08-31T07:21:54;13.70;30.60
30049;DHT22;16879;50.852;15.602;2023-08-31T07:24:21;12.80;74.60
30049;DHT22;16879;50.852;15.602;2023-08-31T07:29:14;13.60;99.90
30049;DHT22;16879;50.852;15.602;2023-08-31T07:34:06;13.50;99.90
30049;DHT22;16879;50.852;15.602;2023-08-31T07:38:59;13.40;99.90
30049;DHT22;16879;50.852;15.602;2023-08-31T07:41:25;13.70;99.90
30049;DHT22;16879;50.852;15.602;2023-08-31T07:46:18;14.00;72.00
30049;DHT22;16879;50.852;15.602;2023-08-31T07:48:43;13.80;1.00
30049;DHT22;16879;50.852;15.602;2023-08-31T07:51:09;13.90;1.00
30049;DHT22;16879;50.852;15.602;2023-08-31T07:58:28;13.90;1.00
30049;DHT22;16879;50.852;15.602;2023-08-31T08:00:57;14.00;1.00
30049;DHT22;16879;50.852;15.602;2023-08-31T08:05:49;13.70;1.00
30049;DHT22;16879;50.852;15.602;2023-08-31T08:10:42;13.10;99.90
30049;DHT22;16879;50.852;15.602;2023-08-31T08:13:09;13.60;99.90
30049;DHT22;16879;50.852;15.602;2023-08-31T08:15:35;13.50;99.90
30049;DHT22;16879;50.852;15.602;2023-08-31T08:18:01;13.20;1.00
30049;DHT22;16879;50.852;15.602;2023-08-31T08:20:28;13.30;1.00
30049;DHT22;16879;50.852;15.602;2023-08-31T08:22:54;13.00;1.00
30049;DHT22;16879;50.852;15.602;2023-08-31T08:25:21;13.50;1.00
30049;DHT22;16879;50.852;15.602;2023-08-31T08:27:48;13.30;1.00
30049;DHT22;16879;50.852;15.602;2023-08-31T08:30:14;13.70;1.00
30049;DHT22;16879;50.852;15.602;2023-08-31T08:32:41;13.40;1.00
30049;DHT22;16879;50.852;15.602;2023-08-31T08:35:08;12.00;1.00
30049;DHT22;16879;50.852;15.602;2023-08-31T08:40:01;13.80;1.00
30049;DHT22;16879;50.852;15.602;2023-08-31T08:42:29;13.70;1.00
30049;DHT22;16879;50.852;15.602;2023-08-31T08:47:25;13.70;1.00
30049;DHT22;16879;50.852;15.602;2023-08-31T08:49:52;13.80;99.90
30049;DHT22;16879;50.852;15.602;2023-08-31T08:52:19;13.90;99.90
30049;DHT22;16879;50.852;15.602;2023-08-31T08:54:45;14.10;99.90
30049;DHT22;16879;50.852;15.602;2023-08-31T09:02:03;15.50;1.00
30049;DHT22;16879;50.852;15.602;2023-08-31T09:04:30;15.60;1.00
30049;DHT22;16879;50.852;15.602;2023-08-31T09:06:56;16.10;99.90
30049;DHT22;16879;50.852;15.602;2023-08-31T09:11:50;15.60;1.00
30049;DHT22;16879;50.852;15.602;2023-08-31T09:16:51;16.50;1.00
30049;DHT22;16879;50.852;15.602;2023-08-31T09:19:24;16.70;99.90
30049;DHT22;16879;50.852;15.602;2023-08-31T09:21:51;17.00;1.00
30049;DHT22;16879;50.852;15.602;2023-08-31T09:24:18;17.00;99.90
30049;DHT22;16879;50.852;15.602;2023-08-31T09:29:12;17.40;1.00
30049;DHT22;16879;50.852;15.602;2023-08-31T09:31:42;17.70;1.00
30049;DHT22;16879;50.852;15.602;2023-08-31T09:34:08;18.40;1.00
30049;DHT22;16879;50.852;15.602;2023-08-31T09:36:34;18.40;1.00
30049;DHT22;16879;50.852;15.602;2023-08-31T09:39:00;18.20;99.90
30049;DHT22;16879;50.852;15.602;2023-08-31T09:41:26;18.50;1.00
30049;DHT22;16879;50.852;15.602;2023-08-31T09:43:52;18.90;1.00
30049;DHT22;16879;50.852;15.602;2023-08-31T09:46:18;18.90;1.00
30049;DHT22;16879;50.852;15.602;2023-08-31T09:48:46;19.10;1.00
30049;DHT22;16879;50.852;15.602;2023-08-31T09:51:14;19.00;99.90
30049;DHT22;16879;50.852;15.602;2023-08-31T09:53:48;18.30;99.90
30049;DHT22;16879;50.852;15.602;2023-08-31T09:56:20;18.00;99.90
30049;DHT22;16879;50.852;15.602;2023-08-31T09:58:48;18.20;99.90
30049;DHT22;16879;50.852;15.602;2023-08-31T10:01:14;18.20;99.90
30049;DHT22;16879;50.852;15.602;2023-08-31T10:03:40;17.80;1.00
30049;DHT22;16879;50.852;15.602;2023-08-31T10:06:07;18.00;1.00
30049;DHT22;16879;50.852;15.602;2023-08-31T10:08:34;18.20;1.00
30049;DHT22;16879;50.852;15.602;2023-08-31T10:11:01;18.00;1.00
30049;DHT22;16879;50.852;15.602;2023-08-31T10:13:31;17.80;1.00
30049;DHT22;16879;50.852;15.602;2023-08-31T10:16:00;17.00;99.90
30049;DHT22;16879;50.852;15.602;2023-08-31T10:18:29;17.50;99.90
30049;DHT22;16879;50.852;15.602;2023-08-31T10:20:56;17.90;99.90
30049;DHT22;16879;50.852;15.602;2023-08-31T10:23:22;18.20;1.00
30049;DHT22;16879;50.852;15.602;2023-08-31T10:28:25;19.10;99.90
30049;DHT22;16879;50.852;15.602;2023-08-31T10:31:15;19.20;99.90
30049;DHT22;16879;50.852;15.602;2023-08-31T10:33:46;19.30;99.90
30049;DHT22;16879;50.852;15.602;2023-08-31T10:36:17;19.40;99.90
30049;DHT22;16879;50.852;15.602;2023-08-31T10:39:05;19.50;99.90
30049;DHT22;16879;50.852;15.602;2023-08-31T10:41:35;19.60;99.90
30049;DHT22;16879;50.852;15.602;2023-08-31T10:44:01;19.70;99.90
30049;DHT22;16879;50.852;15.602;2023-08-31T10:46:35;19.80;99.90
30049;DHT22;16879;50.852;15.602;2023-08-31T10:51:36;19.10;99.90
30049;DHT22;16879;50.852;15.602;2023-08-31T10:54:10;19.50;99.90
30049;DHT22;16879;50.852;15.602;2023-08-31T10:59:44;19.90;99.90
30049;DHT22;16879;50.852;15.602;2023-08-31T11:02:11;19.90;99.90
30049;DHT22;16879;50.852;15.602;2023-08-31T11:10:16;19.50;62.70
30049;DHT22;16879;50.852;15.602;2023-08-31T11:12:49;19.90;99.90
30049;DHT22;16879;50.852;15.602;2023-08-31T11:15:17;20.40;99.90
30049;DHT22;16879;50.852;15.602;2023-08-31T11:17:44;20.60;99.90
30049;DHT22;16879;50.852;15.602;2023-08-31T11:20:18;21.00;99.90
30049;DHT22;16879;50.852;15.602;2023-08-31T11:22:46;20.70;24.50
30049;DHT22;16879;50.852;15.602;2023-08-31T11:25:13;20.30;1.00
30049;DHT22;16879;50.852;15.602;2023-08-31T11:27:40;20.50;17.90
30049;DHT22;16879;50.852;15.602;2023-08-31T11:30:15;20.50;49.70
30049;DHT22;16879;50.852;15.602;2023-08-31T11:32:49;19.90;31.50
30049;DHT22;16879;50.852;15.602;2023-08-31T11:35:16;19.70;99.90
30049;DHT22;16879;50.852;15.602;2023-08-31T11:37:49;19.90;99.90
30049;DHT22;16879;50.852;15.602;2023-08-31T11:40:15;19.50;99.90
30049;DHT22;16879;50.852;15.602;2023-08-31T11:42:41;20.00;99.90
30049;DHT22;16879;50.852;15.602;2023-08-31T11:45:08;20.00;99.90
30049;DHT22;16879;50.852;15.602;2023-08-31T11:47:35;20.00;99.90
30049;DHT22;16879;50.852;15.602;2023-08-31T11:50:01;19.60;78.30
30049;DHT22;16879;50.852;15.602;2023-08-31T11:52:31;18.90;99.90
30049;DHT22;16879;50.852;15.602;2023-08-31T11:54:57;18.50;99.90
30049;DHT22;16879;50.852;15.602;2023-08-31T11:57:27;18.10;99.90
30049;DHT22;16879;50.852;15.602;2023-08-31T11:59:55;17.90;99.90
30049;DHT22;16879;50.852;15.602;2023-08-31T12:04:48;17.70;99.90
30049;DHT22;16879;50.852;15.602;2023-08-31T12:07:19;17.70;1.00
30049;DHT22;16879;50.852;15.602;2023-08-31T12:09:45;17.70;99.90
30049;DHT22;16879;50.852;15.602;2023-08-31T12:12:14;17.70;99.90
30049;DHT22;16879;50.852;15.602;2023-08-31T12:14:41;18.40;99.90
30049;DHT22;16879;50.852;15.602;2023-08-31T12:17:08;18.90;99.90
30049;DHT22;16879;50.852;15.602;2023-08-31T12:19:37;19.70;99.90
30049;DHT22;16879;50.852;15.602;2023-08-31T12:22:05;19.90;8.60
30049;DHT22;16879;50.852;15.602;2023-08-31T12:24:40;20.20;82.10
30049;DHT22;16879;50.852;15.602;2023-08-31T12:27:07;19.80;1.00
30049;DHT22;16879;50.852;15.602;2023-08-31T12:34:25;20.00;1.00
30049;DHT22;16879;50.852;15.602;2023-08-31T12:36:52;20.30;18.30
30049;DHT22;16879;50.852;15.602;2023-08-31T12:39:18;20.40;1.00
30049;DHT22;16879;50.852;15.602;2023-08-31T12:41:45;20.80;24.30
30049;DHT22;16879;50.852;15.602;2023-08-31T12:44:12;20.70;1.00
30049;DHT22;16879;50.852;15.602;2023-08-31T12:46:38;21.30;1.00
30049;DHT22;16879;50.852;15.602;2023-08-31T12:49:05;21.20;1.00
30049;DHT22;16879;50.852;15.602;2023-08-31T12:51:31;20.90;1.00
30049;DHT22;16879;50.852;15.602;2023-08-31T12:53:57;21.30;1.00
30049;DHT22;16879;50.852;15.602;2023-08-31T12:56:23;21.10;1.00
30049;DHT22;16879;50.852;15.602;2023-08-31T12:58:50;21.00;1.00
30049;DHT22;16879;50.852;15.602;2023-08-31T13:01:18;21.00;1.00
30049;DHT22;16879;50.852;15.602;2023-08-31T13:03:44;20.60;1.00
30049;DHT22;16879;50.852;15.602;2023-08-31T13:06:11;19.80;1.00
30049;DHT22;16879;50.852;15.602;2023-08-31T13:08:37;20.40;1.00
30049;DHT22;16879;50.852;15.602;2023-08-31T13:11:03;19.90;1.00
30049;DHT22;16879;50.852;15.602;2023-08-31T13:13:30;20.30;1.00
30049;DHT22;16879;50.852;15.602;2023-08-31T13:15:57;20.30;1.00
30049;DHT22;16879;50.852;15.602;2023-08-31T13:18:23;20.70;1.00
30049;DHT22;16879;50.852;15.602;2023-08-31T13:20:50;20.70;1.00
30049;DHT22;16879;50.852;15.602;2023-08-31T13:23:16;21.30;1.00
30049;DHT22;16879;50.852;15.602;2023-08-31T13:25:42;20.90;1.00
30049;DHT22;16879;50.852;15.602;2023-08-31T13:28:08;20.70;1.00
30049;DHT22;16879;50.852;15.602;2023-08-31T13:30:34;21.20;1.00
30049;DHT22;16879;50.852;15.602;2023-08-31T13:33:00;21.30;1.00
30049;DHT22;16879;50.852;15.602;2023-08-31T13:37:51;21.40;1.00
30049;DHT22;16879;50.852;15.602;2023-08-31T13:40:18;21.00;1.00
30049;DHT22;16879;50.852;15.602;2023-08-31T13:42:56;21.30;1.00
30049;DHT22;16879;50.852;15.602;2023-08-31T13:45:26;20.70;1.00
30049;DHT22;16879;50.852;15.602;2023-08-31T13:47:53;20.60;1.00
30049;DHT22;16879;50.852;15.602;2023-08-31T13:50:19;20.70;1.00
30049;DHT22;16879;50.852;15.602;2023-08-31T13:52:45;20.10;1.00
30049;DHT22;16879;50.852;15.602;2023-08-31T13:55:12;20.20;1.00
30049;DHT22;16879;50.852;15.602;2023-08-31T13:57:41;20.30;1.00
30049;DHT22;16879;50.852;15.602;2023-08-31T14:00:07;20.30;1.00
30049;DHT22;16879;50.852;15.602;2023-08-31T14:02:37;20.50;1.00
30049;DHT22;16879;50.852;15.602;2023-08-31T14:05:04;20.50;1.00
30049;DHT22;16879;50.852;15.602;2023-08-31T14:07:32;20.60;1.00
30049;DHT22;16879;50.852;15.602;2023-08-31T14:09:58;20.60;1.00
30049;DHT22;16879;50.852;15.602;2023-08-31T14:12:24;21.00;1.00
30049;DHT22;16879;50.852;15.602;2023-08-31T14:14:51;20.80;1.00
30049;DHT22;16879;50.852;15.602;2023-08-31T14:17:18;21.30;1.00
30049;DHT22;16879;50.852;15.602;2023-08-31T14:19:44;20.50;1.00
30049;DHT22;16879;50.852;15.602;2023-08-31T14:22:10;20.50;1.00
30049;DHT22;16879;50.852;15.602;2023-08-31T14:24:37;20.40;1.00
30049;DHT22;16879;50.852;15.602;2023-08-31T14:27:04;20.50;1.00
30049;DHT22;16879;50.852;15.602;2023-08-31T14:29:30;20.80;1.00
30049;DHT22;16879;50.852;15.602;2023-08-31T14:31:56;20.60;1.00
30049;DHT22;16879;50.852;15.602;2023-08-31T14:34:22;21.00;1.00
30049;DHT22;16879;50.852;15.602;2023-08-31T14:36:50;21.20;1.00
30049;DHT22;16879;50.852;15.602;2023-08-31T14:39:17;20.90;1.00
30049;DHT22;16879;50.852;15.602;2023-08-31T14:49:05;21.30;1.00
30049;DHT22;16879;50.852;15.602;2023-08-31T14:51:32;21.30;1.00
30049;DHT22;16879;50.852;15.602;2023-08-31T14:53:59;21.50;1.00
30049;DHT22;16879;50.852;15.602;2023-08-31T14:56:26;20.90;1.00
30049;DHT22;16879;50.852;15.602;2023-08-31T15:01:21;21.30;1.00
30049;DHT22;16879;50.852;15.602;2023-08-31T15:08:43;20.60;1.00
30049;DHT22;16879;50.852;15.602;2023-08-31T15:13:37;19.90;1.00
30049;DHT22;16879;50.852;15.602;2023-08-31T15:16:03;19.70;1.00
30049;DHT22;16879;50.852;15.602;2023-08-31T15:18:30;19.30;1.00
30049;DHT22;16879;50.852;15.602;2023-08-31T15:20:56;19.10;1.00
30049;DHT22;16879;50.852;15.602;2023-08-31T15:23:23;18.80;1.00
30049;DHT22;16879;50.852;15.602;2023-08-31T15:25:49;18.30;1.00
30049;DHT22;16879;50.852;15.602;2023-08-31T15:28:15;18.60;1.00
30049;DHT22;16879;50.852;15.602;2023-08-31T15:35:39;17.90;1.00
30049;DHT22;16879;50.852;15.602;2023-08-31T15:38:06;17.70;1.00
30049;DHT22;16879;50.852;15.602;2023-08-31T15:40:32;17.70;1.00
30049;DHT22;16879;50.852;15.602;2023-08-31T15:42:58;17.60;1.00
30049;DHT22;16879;50.852;15.602;2023-08-31T15:45:24;17.60;1.00
30049;DHT22;16879;50.852;15.602;2023-08-31T15:47:52;17.60;1.00
30049;DHT22;16879;50.852;15.602;2023-08-31T15:50:18;17.20;1.00
30049;DHT22;16879;50.852;15.602;2023-08-31T15:52:44;16.90;1.00
30049;DHT22;16879;50.852;15.602;2023-08-31T15:57:38;16.80;2.50
30049;DHT22;16879;50.852;15.602;2023-08-31T16:02:35;16.40;1.00
30049;DHT22;16879;50.852;15.602;2023-08-31T16:05:06;16.40;1.00
30049;DHT22;16879;50.852;15.602;2023-08-31T16:07:33;16.60;65.80
30049;DHT22;16879;50.852;15.602;2023-08-31T16:09:59;16.10;99.90
30049;DHT22;16879;50.852;15.602;2023-08-31T16:14:52;16.30;99.90
30049;DHT22;16879;50.852;15.602;2023-08-31T16:17:18;16.70;99.90
30049;DHT22;16879;50.852;15.602;2023-08-31T16:19:44;16.50;99.90
30049;DHT22;16879;50.852;15.602;2023-08-31T16:22:12;16.00;99.90
30049;DHT22;16879;50.852;15.602;2023-08-31T16:24:38;16.00;99.90
30049;DHT22;16879;50.852;15.602;2023-08-31T16:27:04;15.70;99.90
30049;DHT22;16879;50.852;15.602;2023-08-31T16:29:31;15.70;99.90
30049;DHT22;16879;50.852;15.602;2023-08-31T16:31:57;15.50;99.90
30049;DHT22;16879;50.852;15.602;2023-08-31T16:36:50;15.40;99.90
30049;DHT22;16879;50.852;15.602;2023-08-31T16:39:16;14.90;1.00
30049;DHT22;16879;50.852;15.602;2023-08-31T16:44:10;14.70;1.00
30049;DHT22;16879;50.852;15.602;2023-08-31T16:46:37;15.00;1.00
30049;DHT22;16879;50.852;15.602;2023-08-31T16:49:03;14.70;1.00
30049;DHT22;16879;50.852;15.602;2023-08-31T16:51:30;14.60;1.00
30049;DHT22;16879;50.852;15.602;2023-08-31T16:58:50;14.30;99.90
30049;DHT22;16879;50.852;15.602;2023-08-31T17:01:18;14.20;99.90
30049;DHT22;16879;50.852;15.602;2023-08-31T17:03:44;14.00;99.90
30049;DHT22;16879;50.852;15.602;2023-08-31T17:11:06;14.10;1.00
30049;DHT22;16879;50.852;15.602;2023-08-31T17:13:35;14.10;1.00
30049;DHT22;16879;50.852;15.602;2023-08-31T17:16:08;13.90;1.00
30049;DHT22;16879;50.852;15.602;2023-08-31T17:18:40;13.70;1.00
30049;DHT22;16879;50.852;15.602;2023-08-31T17:26:02;13.70;1.00
30049;DHT22;16879;50.852;15.602;2023-08-31T17:28:28;13.20;99.90
30049;DHT22;16879;50.852;15.602;2023-08-31T17:33:23;13.30;1.00
30049;DHT22;16879;50.852;15.602;2023-08-31T17:35:52;13.10;1.00
30049;DHT22;16879;50.852;15.602;2023-08-31T17:40:48;13.00;1.00
30049;DHT22;16879;50.852;15.602;2023-08-31T17:43:15;12.80;99.90
30049;DHT22;16879;50.852;15.602;2023-08-31T17:45:43;12.60;99.90
30049;DHT22;16879;50.852;15.602;2023-08-31T17:48:10;12.30;99.90
30049;DHT22;16879;50.852;15.602;2023-08-31T17:53:09;12.40;99.90
30049;DHT22;16879;50.852;15.602;2023-08-31T17:55:37;12.40;1.00
30049;DHT22;16879;50.852;15.602;2023-08-31T17:58:03;12.40;1.00
30049;DHT22;16879;50.852;15.602;2023-08-31T18:00:30;12.40;1.00
30049;DHT22;16879;50.852;15.602;2023-08-31T18:05:25;12.20;1.00
30049;DHT22;16879;50.852;15.602;2023-08-31T18:07:54;12.40;1.00
30049;DHT22;16879;50.852;15.602;2023-08-31T18:12:52;12.30;1.00
30049;DHT22;16879;50.852;15.602;2023-08-31T18:15:19;12.20;1.00
30049;DHT22;16879;50.852;15.602;2023-08-31T18:17:45;12.10;1.00
30049;DHT22;16879;50.852;15.602;2023-08-31T18:25:06;12.30;99.90
30049;DHT22;16879;50.852;15.602;2023-08-31T18:30:55;11.90;1.00
30049;DHT22;16879;50.852;15.602;2023-08-31T18:35:54;11.80;1.00
30049;DHT22;16879;50.852;15.602;2023-08-31T18:38:24;11.80;1.00
30049;DHT22;16879;50.852;15.602;2023-08-31T18:40:52;11.80;1.00
30049;DHT22;16879;50.852;15.602;2023-08-31T18:45:46;12.00;99.90
30049;DHT22;16879;50.852;15.602;2023-08-31T18:50:40;11.90;1.00
30049;DHT22;16879;50.852;15.602;2023-08-31T18:53:09;11.50;1.00
30049;DHT22;16879;50.852;15.602;2023-08-31T18:55:35;11.40;1.00
30049;DHT22;16879;50.852;15.602;2023-08-31T18:58:04;11.20;1.00
30049;DHT22;16879;50.852;15.602;2023-08-31T19:00:30;11.20;1.00
30049;DHT22;16879;50.852;15.602;2023-08-31T19:05:24;11.80;1.00
30049;DHT22;16879;50.852;15.602;2023-08-31T19:07:51;11.40;1.00
30049;DHT22;16879;50.852;15.602;2023-08-31T19:10:19;11.00;1.00
30049;DHT22;16879;50.852;15.602;2023-08-31T19:12:47;11.20;99.90
30049;DHT22;16879;50.852;15.602;2023-08-31T19:15:15;11.20;99.90
30049;DHT22;16879;50.852;15.602;2023-08-31T19:17:46;11.80;1.00
30049;DHT22;16879;50.852;15.602;2023-08-31T19:20:13;10.90;1.00
30049;DHT22;16879;50.852;15.602;2023-08-31T19:22:45;11.20;1.00
30049;DHT22;16879;50.852;15.602;2023-08-31T19:25:13;10.50;99.90
30049;DHT22;16879;50.852;15.602;2023-08-31T19:27:47;11.10;1.00
30049;DHT22;16879;50.852;15.602;2023-08-31T19:32:48;11.10;1.00
30049;DHT22;16879;50.852;15.602;2023-08-31T19:35:19;11.10;99.90
30049;DHT22;16879;50.852;15.602;2023-08-31T19:37:48;11.10;21.20
30049;DHT22;16879;50.852;15.602;2023-08-31T19:42:49;11.10;99.90
30049;DHT22;16879;50.852;15.602;2023-08-31T19:47:45;11.00;99.90
30049;DHT22;16879;50.852;15.602;2023-08-31T19:52:41;10.90;1.00
30049;DHT22;16879;50.852;15.602;2023-08-31T19:55:12;10.50;1.00
30049;DHT22;16879;50.852;15.602;2023-08-31T19:57:39;11.00;1.00
30049;DHT22;16879;50.852;15.602;2023-08-31T20:00:08;11.00;1.00
30049;DHT22;16879;50.852;15.602;2023-08-31T20:05:01;10.70;1.00
30049;DHT22;16879;50.852;15.602;2023-08-31T20:12:23;10.90;1.00
30049;DHT22;16879;50.852;15.602;2023-08-31T20:14:50;10.80;1.00
30049;DHT22;16879;50.852;15.602;2023-08-31T20:17:16;11.20;1.00
30049;DHT22;16879;50.852;15.602;2023-08-31T20:22:10;10.70;1.00
30049;DHT22;16879;50.852;15.602;2023-08-31T20:24:36;10.20;1.00